createdAt,value
2023-03-17T00:01:51.256Z,3.50
2023-03-17T00:04:19.377Z,3.67
2023-03-17T00:06:46.566Z,3.53
2023-03-17T00:09:18.734Z,3.47
2023-03-17T00:11:46.609Z,3.28
2023-03-17T00:14:13.524Z,3.58
2023-03-17T00:16:43.720Z,3.38
2023-03-17T00:19:36.626Z,3.38
2023-03-17T00:22:06.019Z,3.42
2023-03-17T00:24:33.590Z,3.05
2023-03-17T00:27:00.690Z,3.35
2023-03-17T00:29:27.942Z,2.90
2023-03-17T00:31:57.004Z,3.13
2023-03-17T00:34:23.596Z,3.42
2023-03-17T00:36:51.264Z,3.42
2023-03-17T00:39:18.565Z,3.25
2023-03-17T00:44:12.529Z,3.17
2023-03-17T00:46:39.437Z,3.08
2023-03-17T00:49:21.536Z,2.72
2023-03-17T00:51:49.637Z,2.70
2023-03-17T00:54:18.188Z,2.90
2023-03-17T00:56:45.573Z,2.97
2023-03-17T00:59:20.619Z,2.60
2023-03-17T01:01:49.036Z,3.00
2023-03-17T01:04:15.791Z,2.53
2023-03-17T01:06:43.152Z,3.03
2023-03-17T01:09:16.388Z,3.03
2023-03-17T01:11:44.076Z,3.15
2023-03-17T01:14:13.163Z,2.85
2023-03-17T01:16:40.796Z,2.75
2023-03-17T01:19:07.549Z,2.97
2023-03-17T01:21:34.545Z,2.92
2023-03-17T01:24:01.526Z,2.58
2023-03-17T01:26:28.480Z,2.90
2023-03-17T01:28:55.179Z,2.80
2023-03-17T01:31:23.398Z,2.88
2023-03-17T01:33:51.235Z,3.28
2023-03-17T01:36:17.979Z,2.80
2023-03-17T01:38:47.928Z,2.90
2023-03-17T01:41:14.497Z,3.05
2023-03-17T01:43:41.564Z,2.92
2023-03-17T01:46:14.115Z,3.10
2023-03-17T01:51:13.677Z,2.90
2023-03-17T01:53:41.870Z,2.67
2023-03-17T01:56:08.451Z,3.10
2023-03-17T01:58:35.618Z,3.40
2023-03-17T02:01:02.438Z,3.08
2023-03-17T02:03:29.789Z,2.53
2023-03-17T02:05:57.948Z,2.65
2023-03-17T02:08:24.596Z,3.03
2023-03-17T02:10:52.359Z,3.30
2023-03-17T02:13:19.136Z,2.92
2023-03-17T02:15:52.897Z,3.00
2023-03-17T02:18:21.758Z,2.95
2023-03-17T02:20:48.259Z,3.05
2023-03-17T02:23:19.701Z,3.47
2023-03-17T02:25:47.403Z,2.97
2023-03-17T02:28:29.907Z,2.92
2023-03-17T02:30:57.766Z,3.40
2023-03-17T02:33:24.571Z,3.28
2023-03-17T02:35:54.925Z,3.63
2023-03-17T02:38:21.853Z,3.30
2023-03-17T02:40:48.595Z,3.03
2023-03-17T02:43:15.166Z,2.85
2023-03-17T02:45:41.772Z,3.40
2023-03-17T02:48:11.942Z,3.17
2023-03-17T02:50:38.603Z,2.97
2023-03-17T02:53:05.225Z,3.42
2023-03-17T02:55:31.824Z,3.10
2023-03-17T02:57:58.848Z,3.30
2023-03-17T03:00:26.477Z,2.95
2023-03-17T03:02:53.121Z,3.05
2023-03-17T03:05:20.089Z,3.17
2023-03-17T03:07:46.920Z,3.80
2023-03-17T03:10:13.657Z,3.45
2023-03-17T03:12:40.321Z,3.17
2023-03-17T03:15:07.423Z,3.30
2023-03-17T03:17:34.018Z,2.92
2023-03-17T03:20:00.608Z,3.45
2023-03-17T03:22:27.169Z,3.38
2023-03-17T03:24:53.728Z,3.50
2023-03-17T03:27:20.322Z,3.47
2023-03-17T03:29:46.959Z,3.88
2023-03-17T03:32:13.657Z,3.90
2023-03-17T03:34:40.185Z,3.28
2023-03-17T03:37:06.877Z,2.83
2023-03-17T03:39:33.427Z,3.30
2023-03-17T03:41:59.925Z,2.90
2023-03-17T03:44:26.509Z,3.38
2023-03-17T03:46:53.082Z,3.70
2023-03-17T03:49:19.694Z,3.25
2023-03-17T03:51:46.282Z,3.20
2023-03-17T03:54:12.777Z,3.20
2023-03-17T03:56:39.259Z,3.15
2023-03-17T03:59:06.097Z,3.10
2023-03-17T04:01:32.754Z,3.03
2023-03-17T04:03:59.345Z,3.28
2023-03-17T04:06:25.932Z,3.35
2023-03-17T04:08:52.512Z,3.80
2023-03-17T04:11:19.139Z,3.50
2023-03-17T04:13:45.792Z,2.65
2023-03-17T04:16:12.453Z,2.95
2023-03-17T04:18:39.166Z,3.05
2023-03-17T04:21:06.156Z,3.45
2023-03-17T04:23:32.737Z,3.10
2023-03-17T04:25:59.372Z,2.97
2023-03-17T04:28:25.940Z,3.20
2023-03-17T04:30:52.485Z,3.38
2023-03-17T04:33:20.280Z,3.25
2023-03-17T04:35:46.941Z,3.67
2023-03-17T04:38:13.609Z,3.13
2023-03-17T04:40:40.664Z,3.28
2023-03-17T04:43:07.225Z,3.58
2023-03-17T04:45:33.878Z,3.00
2023-03-17T04:48:00.522Z,3.42
2023-03-17T04:50:27.129Z,3.35
2023-03-17T04:52:53.786Z,3.28
2023-03-17T04:55:21.044Z,3.40
2023-03-17T04:57:47.641Z,2.95
2023-03-17T05:00:15.477Z,3.28
2023-03-17T05:02:42.219Z,3.50
2023-03-17T05:05:09.884Z,3.30
2023-03-17T05:07:36.479Z,2.97
2023-03-17T05:10:03.540Z,3.20
2023-03-17T05:12:30.373Z,3.55
2023-03-17T05:14:56.962Z,3.35
2023-03-17T05:17:23.530Z,3.40
2023-03-17T05:19:50.234Z,3.47
2023-03-17T05:22:16.922Z,3.10
2023-03-17T05:24:43.661Z,3.60
2023-03-17T05:27:10.404Z,3.58
2023-03-17T05:29:37.068Z,2.65
2023-03-17T05:32:03.933Z,3.63
2023-03-17T05:34:31.163Z,3.78
2023-03-17T05:36:57.839Z,3.42
2023-03-17T05:39:24.345Z,3.05
2023-03-17T05:41:51.484Z,4.20
2023-03-17T05:44:18.074Z,3.40
2023-03-17T05:46:44.780Z,3.63
2023-03-17T05:49:11.437Z,3.40
2023-03-17T05:51:38.092Z,3.55
2023-03-17T05:54:04.847Z,3.40
2023-03-17T05:56:33.723Z,3.60
2023-03-17T05:59:01.820Z,3.33
2023-03-17T06:01:29.017Z,3.92
2023-03-17T06:03:55.765Z,3.35
2023-03-17T06:06:22.470Z,3.50
2023-03-17T06:08:48.972Z,3.25
2023-03-17T06:11:15.930Z,3.53
2023-03-17T06:13:42.558Z,3.22
2023-03-17T06:16:09.742Z,3.42
2023-03-17T06:18:36.695Z,3.53
2023-03-17T06:21:03.359Z,3.10
2023-03-17T06:23:29.929Z,3.42
2023-03-17T06:25:56.897Z,3.58
2023-03-17T06:28:24.006Z,3.38
2023-03-17T06:30:50.883Z,3.58
2023-03-17T06:33:19.223Z,3.65
2023-03-17T06:35:46.872Z,3.70
2023-03-17T06:38:13.489Z,3.22
2023-03-17T06:40:40.090Z,3.85
2023-03-17T06:43:07.507Z,3.90
2023-03-17T06:45:34.620Z,3.80
2023-03-17T06:48:02.228Z,3.65
2023-03-17T06:50:29.008Z,3.50
2023-03-17T06:52:55.964Z,3.53
2023-03-17T06:55:22.576Z,3.50
2023-03-17T06:57:51.061Z,3.70
2023-03-17T07:00:19.511Z,3.58
2023-03-17T07:02:47.250Z,3.92
2023-03-17T07:05:13.965Z,3.55
2023-03-17T07:07:41.025Z,3.78
2023-03-17T07:10:10.272Z,3.60
2023-03-17T07:12:37.695Z,3.95
2023-03-17T07:15:04.808Z,3.45
2023-03-17T07:17:31.320Z,3.60
2023-03-17T07:19:57.893Z,3.63
2023-03-17T07:22:24.600Z,3.40
2023-03-17T07:24:51.869Z,3.53
2023-03-17T07:27:20.247Z,3.17
2023-03-17T07:29:48.924Z,3.20
2023-03-17T07:32:15.439Z,3.40
2023-03-17T07:34:42.080Z,3.20
2023-03-17T07:37:09.060Z,3.15
2023-03-17T07:39:36.401Z,3.78
2023-03-17T07:42:02.961Z,2.97
2023-03-17T07:44:30.385Z,3.45
2023-03-17T07:46:57.395Z,3.30
2023-03-17T07:49:39.891Z,3.22
2023-03-17T07:52:09.406Z,3.30
2023-03-17T07:54:37.594Z,3.53
2023-03-17T07:57:05.086Z,3.58
2023-03-17T07:59:32.698Z,3.10
2023-03-17T08:02:01.258Z,3.92
2023-03-17T08:04:28.522Z,2.80
2023-03-17T08:06:55.149Z,3.40
2023-03-17T08:09:24.903Z,3.22
2023-03-17T08:11:51.570Z,2.97
2023-03-17T08:14:18.466Z,2.80
2023-03-17T08:16:45.232Z,2.90
2023-03-17T08:19:11.889Z,3.90
2023-03-17T08:21:38.618Z,3.58
2023-03-17T08:24:05.889Z,2.80
2023-03-17T08:26:32.608Z,3.17
2023-03-17T08:28:59.407Z,3.20
2023-03-17T08:31:26.129Z,3.08
2023-03-17T08:33:54.114Z,3.15
2023-03-17T08:36:21.510Z,3.15
2023-03-17T08:38:48.706Z,3.30
2023-03-17T08:41:19.079Z,3.00
2023-03-17T08:43:46.896Z,3.65
2023-03-17T08:46:19.759Z,3.55
2023-03-17T08:48:48.676Z,3.25
2023-03-17T08:51:18.437Z,3.45
2023-03-17T08:53:46.370Z,3.13
2023-03-17T08:56:14.177Z,3.63
2023-03-17T08:58:42.525Z,3.67
2023-03-17T09:01:10.868Z,3.22
2023-03-17T09:03:39.298Z,3.25
2023-03-17T09:06:09.864Z,3.40
2023-03-17T09:08:39.928Z,3.40
2023-03-17T09:11:08.389Z,3.47
2023-03-17T09:13:37.227Z,3.40
2023-03-17T09:16:03.960Z,3.88
2023-03-17T09:18:32.936Z,3.22
2023-03-17T09:21:00.305Z,2.72
2023-03-17T09:23:26.993Z,3.00
2023-03-17T09:25:53.714Z,3.45
2023-03-17T09:28:20.224Z,3.35
2023-03-17T09:30:46.949Z,3.47
2023-03-17T09:33:14.469Z,3.50
2023-03-17T09:35:41.512Z,3.63
2023-03-17T09:38:09.592Z,3.33
2023-03-17T09:40:44.430Z,3.50
2023-03-17T09:43:32.576Z,3.28
2023-03-17T09:46:18.826Z,3.22
2023-03-17T09:48:49.862Z,3.28
2023-03-17T09:51:19.741Z,3.08
2023-03-17T09:53:59.833Z,3.90
2023-03-17T09:56:34.909Z,3.38
2023-03-17T09:59:23.280Z,3.17
2023-03-17T10:01:50.352Z,2.90
2023-03-17T10:04:18.937Z,2.78
2023-03-17T10:06:47.435Z,2.88
2023-03-17T10:09:27.151Z,3.30
2023-03-17T10:12:07.393Z,3.17
2023-03-17T10:14:38.279Z,2.97
2023-03-17T10:17:16.674Z,3.08
2023-03-17T10:20:01.026Z,2.65
2023-03-17T10:22:39.664Z,3.05
2023-03-17T10:25:15.818Z,2.88
2023-03-17T10:27:48.705Z,2.75
2023-03-17T10:30:18.625Z,3.50
2023-03-17T10:32:46.531Z,2.70
2023-03-17T10:35:15.519Z,3.47
2023-03-17T10:37:44.018Z,2.67
2023-03-17T10:40:37.171Z,3.53
2023-03-17T10:43:08.607Z,2.85
2023-03-17T10:45:42.819Z,3.13
2023-03-17T10:48:17.372Z,3.28
2023-03-17T10:50:48.598Z,3.00
2023-03-17T10:53:30.122Z,2.95
2023-03-17T10:56:08.656Z,3.13
2023-03-17T10:58:39.370Z,3.25
2023-03-17T11:01:16.357Z,2.97
2023-03-17T11:03:43.138Z,2.88
2023-03-17T11:06:15.831Z,3.25
2023-03-17T11:08:49.240Z,2.97
2023-03-17T11:11:34.520Z,3.30
2023-03-17T11:14:13.404Z,3.10
2023-03-17T11:16:55.482Z,3.15
2023-03-17T11:19:37.438Z,2.90
2023-03-17T11:22:20.778Z,2.65
2023-03-17T11:25:04.289Z,3.08
2023-03-17T11:27:38.867Z,2.80
2023-03-17T11:31:00.131Z,3.60
2023-03-17T11:33:42.468Z,3.20
2023-03-17T11:36:43.452Z,3.35
2023-03-17T11:39:15.986Z,3.28
2023-03-17T11:41:51.007Z,3.05
2023-03-17T11:44:32.892Z,3.50
2023-03-17T11:47:18.393Z,3.45
2023-03-17T11:49:51.436Z,3.85
2023-03-17T11:52:22.020Z,3.72
2023-03-17T11:55:07.764Z,3.85
2023-03-17T11:57:47.138Z,3.42
2023-03-17T12:00:20.657Z,3.80
2023-03-17T12:03:07.374Z,3.63
2023-03-17T12:05:35.570Z,3.33
2023-03-17T12:08:12.057Z,3.38
2023-03-17T12:10:52.234Z,3.50
2023-03-17T12:13:28.024Z,3.45
2023-03-17T12:16:06.082Z,3.20
2023-03-17T12:18:46.280Z,3.40
2023-03-17T12:21:27.423Z,3.20
2023-03-17T12:24:06.907Z,3.03
2023-03-17T12:27:03.644Z,3.60
2023-03-17T12:29:57.675Z,3.40
2023-03-17T12:32:45.864Z,3.45
2023-03-17T12:35:29.897Z,4.03
2023-03-17T12:37:59.960Z,3.80
2023-03-17T12:40:39.420Z,3.65
2023-03-17T12:43:24.334Z,3.95
2023-03-17T12:46:14.309Z,3.58
2023-03-17T12:48:58.060Z,3.50
2023-03-17T12:51:33.789Z,4.15
2023-03-17T12:54:00.915Z,3.85
2023-03-17T12:56:30.288Z,3.50
2023-03-17T12:59:06.623Z,4.45
2023-03-17T13:01:43.536Z,4.00
2023-03-17T13:04:27.322Z,3.75
2023-03-17T13:07:18.186Z,4.22
2023-03-17T13:09:46.924Z,4.43
2023-03-17T13:12:34.918Z,3.97
2023-03-17T13:15:01.792Z,3.75
2023-03-17T13:17:31.221Z,4.28
2023-03-17T13:20:07.722Z,4.32
2023-03-17T13:22:40.819Z,4.05
2023-03-17T13:25:26.649Z,3.50
2023-03-17T13:27:53.405Z,3.55
2023-03-17T13:30:24.283Z,4.60
2023-03-17T13:33:02.491Z,4.05
2023-03-17T13:35:51.672Z,4.00
2023-03-17T13:38:39.853Z,4.10
2023-03-17T13:41:18.488Z,4.60
2023-03-17T13:44:05.743Z,4.43
2023-03-17T13:46:41.619Z,4.82
2023-03-17T13:49:19.471Z,4.30
2023-03-17T13:52:03.396Z,4.55
2023-03-17T13:54:40.594Z,4.13
2023-03-17T13:57:26.266Z,4.93
2023-03-17T14:00:00.720Z,4.22
2023-03-17T14:02:31.729Z,5.10
2023-03-17T14:05:07.558Z,4.97
2023-03-17T14:07:47.993Z,4.90
2023-03-17T14:10:24.370Z,4.53
2023-03-17T14:12:57.078Z,4.93
2023-03-17T14:15:33.071Z,4.88
2023-03-17T14:18:10.913Z,4.97
2023-03-17T14:20:37.589Z,4.93
2023-03-17T14:23:06.566Z,4.35
2023-03-17T14:25:36.277Z,4.57
2023-03-17T14:28:09.382Z,4.95
2023-03-17T14:30:38.488Z,5.22
2023-03-17T14:33:28.163Z,5.30
2023-03-17T14:35:58.558Z,4.95
2023-03-17T14:38:27.650Z,4.57
2023-03-17T14:41:06.850Z,5.18
2023-03-17T14:43:36.009Z,4.55
2023-03-17T14:46:05.705Z,4.38
2023-03-17T14:48:35.669Z,4.65
2023-03-17T14:51:07.944Z,4.05
2023-03-17T14:53:39.137Z,3.83
2023-03-17T14:56:06.196Z,4.43
2023-03-17T14:58:44.180Z,4.10
2023-03-17T15:01:18.491Z,4.15
2023-03-17T15:04:05.897Z,3.90
2023-03-17T15:06:36.832Z,4.15
2023-03-17T15:09:18.463Z,4.22
2023-03-17T15:11:46.049Z,4.57
2023-03-17T15:14:36.566Z,4.38
2023-03-17T15:17:06.472Z,4.50
2023-03-17T15:19:42.925Z,4.28
2023-03-17T15:22:44.729Z,4.22
2023-03-17T15:25:28.893Z,4.13
2023-03-17T15:27:55.955Z,4.13
2023-03-17T15:30:23.750Z,4.13
2023-03-17T15:32:53.007Z,4.43
2023-03-17T15:35:19.653Z,4.40
2023-03-17T15:37:46.443Z,4.13
2023-03-17T15:40:13.881Z,3.92
2023-03-17T15:42:40.643Z,4.22
2023-03-17T15:45:07.875Z,4.10
2023-03-17T15:47:39.749Z,4.72
2023-03-17T15:50:24.263Z,4.15
2023-03-17T15:52:56.154Z,3.65
2023-03-17T15:55:25.278Z,3.88
2023-03-17T15:57:55.212Z,3.90
2023-03-17T16:00:23.904Z,3.50
2023-03-17T16:02:59.584Z,3.35
2023-03-17T16:05:29.205Z,3.58
2023-03-17T16:07:55.780Z,3.47
2023-03-17T16:10:23.591Z,3.20
2023-03-17T16:12:51.078Z,3.47
2023-03-17T16:15:23.717Z,2.95
2023-03-17T16:17:53.540Z,3.95
2023-03-17T16:20:24.428Z,3.20
2023-03-17T16:22:53.160Z,3.20
2023-03-17T16:25:24.845Z,3.15
2023-03-17T16:27:52.766Z,3.55
2023-03-17T16:30:28.309Z,3.60
2023-03-17T16:33:00.268Z,3.58
2023-03-17T16:35:26.873Z,3.78
2023-03-17T16:37:56.707Z,4.22
2023-03-17T16:40:33.119Z,23.63
2023-03-17T16:43:00.135Z,7.90
2023-03-17T16:45:29.339Z,4.53
2023-03-17T16:47:57.088Z,4.38
2023-03-17T16:50:26.508Z,3.75
2023-03-17T16:52:53.607Z,3.30
2023-03-17T16:55:21.315Z,3.40
2023-03-17T16:57:50.585Z,3.30
2023-03-17T17:00:25.012Z,3.35
2023-03-17T17:02:52.654Z,3.45
2023-03-17T17:05:28.302Z,3.17
2023-03-17T17:07:59.239Z,4.78
2023-03-17T17:10:28.116Z,4.63
2023-03-17T17:12:54.654Z,3.88
2023-03-17T17:15:22.596Z,11.70
2023-03-17T17:17:52.197Z,11.95
2023-03-17T17:20:23.179Z,10.77
2023-03-17T17:22:49.883Z,9.73
2023-03-17T17:25:17.645Z,24.02
2023-03-17T17:27:45.677Z,18.90
2023-03-17T17:30:17.095Z,13.02
2023-03-17T17:32:44.979Z,10.05
2023-03-17T17:35:12.640Z,4.93
2023-03-17T17:37:39.629Z,3.55
2023-03-17T17:40:08.710Z,3.67
2023-03-17T17:42:36.052Z,3.47
2023-03-17T17:45:02.709Z,4.13
2023-03-17T17:47:32.241Z,3.15
2023-03-17T17:49:59.625Z,5.50
2023-03-17T17:52:26.302Z,7.03
2023-03-17T17:54:52.851Z,7.03
2023-03-17T17:57:19.427Z,6.45
2023-03-17T17:59:46.012Z,7.72
2023-03-17T18:02:13.422Z,10.68
2023-03-17T18:04:40.210Z,12.80
2023-03-17T18:07:07.493Z,10.65
2023-03-17T18:09:34.017Z,5.15
2023-03-17T18:12:00.561Z,4.30
2023-03-17T18:14:27.684Z,3.65
2023-03-17T18:16:54.294Z,3.55
2023-03-17T18:19:21.125Z,2.90
2023-03-17T18:21:47.807Z,3.03
2023-03-17T18:24:14.810Z,2.33
2023-03-17T18:26:41.726Z,1.70
2023-03-17T18:29:09.423Z,1.85
2023-03-17T18:31:46.286Z,2.00
2023-03-17T18:34:20.049Z,1.77
2023-03-17T18:36:47.990Z,1.67
2023-03-17T18:39:16.024Z,2.05
2023-03-17T18:41:44.124Z,1.70
2023-03-17T18:44:11.337Z,1.45
2023-03-17T18:46:38.357Z,1.50
2023-03-17T18:49:06.388Z,2.17
2023-03-17T18:51:33.654Z,2.03
2023-03-17T18:54:00.756Z,2.58
2023-03-17T18:56:29.536Z,2.08
2023-03-17T18:58:57.207Z,2.17
2023-03-17T19:01:24.009Z,2.00
2023-03-17T19:03:50.801Z,1.60
2023-03-17T19:06:20.766Z,2.08
2023-03-17T19:08:48.028Z,1.65
2023-03-17T19:11:16.876Z,1.98
2023-03-17T19:13:45.744Z,2.35
2023-03-17T19:16:14.337Z,2.40
2023-03-17T19:18:42.490Z,2.10
2023-03-17T19:21:10.410Z,1.98
2023-03-17T19:23:39.252Z,1.55
2023-03-17T19:26:06.539Z,1.38
2023-03-17T19:28:34.424Z,1.67
2023-03-17T19:31:02.556Z,2.72
2023-03-17T19:33:30.129Z,6.97
2023-03-17T19:36:00.169Z,11.32
2023-03-17T19:38:27.722Z,10.80
2023-03-17T19:40:55.886Z,7.95
2023-03-17T19:43:39.497Z,5.03
2023-03-17T19:46:07.948Z,3.15
2023-03-17T19:48:36.369Z,2.88
2023-03-17T19:51:03.200Z,3.00
2023-03-17T19:53:29.915Z,3.17
2023-03-17T19:55:56.898Z,3.05
2023-03-17T19:58:24.120Z,2.47
2023-03-17T20:00:51.425Z,2.65
2023-03-17T20:03:18.019Z,3.00
2023-03-17T20:05:46.160Z,2.78
2023-03-17T20:08:12.888Z,2.92
2023-03-17T20:10:39.497Z,2.75
2023-03-17T20:13:06.365Z,3.28
2023-03-17T20:15:33.709Z,3.30
2023-03-17T20:18:00.743Z,3.47
2023-03-17T20:20:28.645Z,3.55
2023-03-17T20:22:56.374Z,4.13
2023-03-17T20:25:24.082Z,3.22
2023-03-17T20:27:52.033Z,3.80
2023-03-17T20:30:19.895Z,2.80
2023-03-17T20:32:47.508Z,3.13
2023-03-17T20:35:15.761Z,2.80
2023-03-17T20:37:43.138Z,2.90
2023-03-17T20:40:11.343Z,2.70
2023-03-17T20:42:39.120Z,2.88
2023-03-17T20:45:07.641Z,3.30
2023-03-17T20:47:34.825Z,4.30
2023-03-17T20:50:01.610Z,3.15
2023-03-17T20:52:30.095Z,2.95
2023-03-17T20:54:59.306Z,2.90
2023-03-17T20:57:26.310Z,3.05
2023-03-17T20:59:52.967Z,3.05
2023-03-17T21:02:19.548Z,3.03
2023-03-17T21:04:48.752Z,2.90
2023-03-17T21:07:17.205Z,3.30
2023-03-17T21:09:44.899Z,3.22
2023-03-17T21:12:18.083Z,3.08
2023-03-17T21:14:46.514Z,3.03
2023-03-17T21:17:13.067Z,3.15
2023-03-17T21:19:40.497Z,3.00
2023-03-17T21:22:07.629Z,3.20
2023-03-17T21:24:37.020Z,3.35
2023-03-17T21:27:05.786Z,3.13
2023-03-17T21:29:34.015Z,3.15
2023-03-17T21:32:01.944Z,3.25
2023-03-17T21:34:30.639Z,3.67
2023-03-17T21:36:58.233Z,3.15
2023-03-17T21:39:28.091Z,3.10
2023-03-17T21:41:56.146Z,3.28
2023-03-17T21:44:22.774Z,3.17
2023-03-17T21:46:49.927Z,3.67
2023-03-17T21:49:18.684Z,3.45
2023-03-17T21:51:48.726Z,3.60
2023-03-17T21:54:20.292Z,3.40
2023-03-17T21:56:59.831Z,4.07
2023-03-17T22:02:03.754Z,3.60
2023-03-17T22:04:32.859Z,4.32
2023-03-17T22:07:00.636Z,3.50
2023-03-17T22:09:27.669Z,4.55
2023-03-17T22:11:55.004Z,4.30
2023-03-17T22:14:22.434Z,3.85
2023-03-17T22:16:49.487Z,3.60
2023-03-17T22:19:18.168Z,3.42
2023-03-17T22:21:46.068Z,3.80
2023-03-17T22:24:12.869Z,3.92
2023-03-17T22:26:39.477Z,3.58
2023-03-17T22:29:06.253Z,4.43
2023-03-17T22:31:34.634Z,3.47
2023-03-17T22:34:02.159Z,3.38
2023-03-17T22:36:30.143Z,3.20
2023-03-17T22:38:58.485Z,3.40
2023-03-17T22:41:29.133Z,3.38
2023-03-17T22:43:56.781Z,3.53
2023-03-17T22:46:24.153Z,4.07
2023-03-17T22:48:51.727Z,3.72
2023-03-17T22:51:24.230Z,3.97
2023-03-17T22:53:51.298Z,3.00
2023-03-17T22:56:19.305Z,4.32
2023-03-17T22:58:47.209Z,4.05
2023-03-17T23:01:16.448Z,3.40
2023-03-17T23:03:43.934Z,4.30
2023-03-17T23:06:13.034Z,4.50
2023-03-17T23:08:42.686Z,4.15
2023-03-17T23:11:23.054Z,3.90
2023-03-17T23:13:51.321Z,3.90
2023-03-17T23:16:18.964Z,4.07
2023-03-17T23:18:46.983Z,3.97
2023-03-17T23:21:27.709Z,3.60
2023-03-17T23:23:54.447Z,4.18
2023-03-17T23:26:21.284Z,4.07
2023-03-17T23:28:47.900Z,4.13
2023-03-17T23:31:16.601Z,4.25
2023-03-17T23:33:43.768Z,4.43
2023-03-17T23:36:10.785Z,3.85
2023-03-17T23:38:37.413Z,5.13
2023-03-17T23:41:06.427Z,3.67
2023-03-17T23:43:34.052Z,3.97
2023-03-17T23:46:01.270Z,3.70
2023-03-17T23:48:28.328Z,3.97
2023-03-17T23:50:55.011Z,4.50
2023-03-17T23:53:23.987Z,4.13
2023-03-17T23:55:51.355Z,4.40
2023-03-17T23:58:18.556Z,3.92
